createdAt,value
2023-05-05T00:01:15.610Z,60.08
2023-05-05T00:03:47.267Z,59.75
2023-05-05T00:06:14.963Z,60.09
2023-05-05T00:08:42.826Z,60.09
2023-05-05T00:11:10.762Z,60.42
2023-05-05T00:13:39.456Z,61.25
2023-05-05T00:16:07.508Z,61.89
2023-05-05T00:18:37.384Z,61.51
2023-05-05T00:21:06.724Z,61.18
2023-05-05T00:23:34.387Z,61.34
2023-05-05T00:26:02.041Z,60.90
2023-05-05T00:28:29.709Z,61.01
2023-05-05T00:30:57.350Z,60.32
2023-05-05T00:33:26.752Z,61.37
2023-05-05T00:35:54.369Z,61.50
2023-05-05T00:38:23.378Z,61.90
2023-05-05T00:40:50.989Z,62.49
2023-05-05T00:43:18.603Z,62.09
2023-05-05T00:45:47.794Z,62.02
2023-05-05T00:48:18.787Z,62.84
2023-05-05T00:50:46.364Z,63.03
2023-05-05T00:53:14.265Z,63.18
2023-05-05T00:55:43.633Z,63.17
2023-05-05T00:58:13.193Z,63.43
2023-05-05T01:00:41.137Z,63.72
2023-05-05T01:03:09.103Z,63.89
2023-05-05T01:05:47.170Z,65.49
2023-05-05T01:08:27.753Z,65.86
2023-05-05T01:11:03.294Z,65.65
2023-05-05T01:13:42.593Z,66.97
2023-05-05T01:16:15.471Z,66.59
2023-05-05T01:18:51.452Z,66.51
2023-05-05T01:21:27.074Z,66.30
2023-05-05T01:24:39.842Z,67.28
2023-05-05T01:27:39.841Z,68.56
2023-05-05T01:30:21.481Z,67.90
2023-05-05T01:32:55.395Z,70.31
2023-05-05T01:35:29.578Z,70.37
2023-05-05T01:38:03.554Z,70.36
2023-05-05T01:40:38.654Z,71.83
2023-05-05T01:43:08.700Z,70.15
2023-05-05T01:45:39.855Z,71.46
2023-05-05T01:48:10.058Z,72.29
2023-05-05T01:50:38.156Z,71.55
2023-05-05T01:53:08.835Z,71.38
2023-05-05T01:55:38.124Z,72.01
2023-05-05T01:58:07.249Z,72.96
2023-05-05T02:00:35.858Z,73.24
2023-05-05T02:03:05.931Z,74.55
2023-05-05T02:05:37.369Z,74.24
2023-05-05T02:08:07.639Z,75.40
2023-05-05T02:10:35.969Z,76.00
2023-05-05T02:13:05.396Z,75.90
2023-05-05T02:15:33.894Z,75.01
2023-05-05T02:18:03.761Z,74.57
2023-05-05T02:20:32.587Z,74.80
2023-05-05T02:23:01.767Z,76.42
2023-05-05T02:25:36.426Z,76.66
2023-05-05T02:28:05.695Z,76.08
2023-05-05T02:30:36.156Z,76.72
2023-05-05T02:33:07.943Z,78.54
2023-05-05T02:35:40.437Z,79.26
2023-05-05T02:38:14.689Z,80.43
2023-05-05T02:40:44.086Z,82.53
2023-05-05T02:43:16.258Z,83.18
2023-05-05T02:45:44.097Z,83.98
2023-05-05T02:48:12.951Z,82.13
2023-05-05T02:50:40.840Z,83.84
2023-05-05T02:53:09.974Z,84.68
2023-05-05T02:55:42.952Z,84.36
2023-05-05T02:58:19.793Z,86.25
2023-05-05T03:00:54.392Z,88.46
2023-05-05T03:03:31.035Z,88.52
2023-05-05T03:06:06.643Z,90.69
2023-05-05T03:08:42.080Z,90.02
2023-05-05T03:11:19.364Z,90.90
2023-05-05T03:13:51.436Z,91.08
2023-05-05T03:16:19.837Z,93.20
2023-05-05T03:18:49.539Z,92.48
2023-05-05T03:21:17.621Z,93.37
2023-05-05T03:23:47.082Z,94.92
2023-05-05T03:26:18.145Z,94.79
2023-05-05T03:28:45.965Z,95.27
2023-05-05T03:31:14.332Z,94.91
2023-05-05T03:33:42.214Z,93.56
2023-05-05T03:36:12.163Z,93.89
2023-05-05T03:38:39.766Z,94.53
2023-05-05T03:41:09.674Z,96.00
2023-05-05T03:43:39.194Z,95.64
2023-05-05T03:46:06.810Z,96.37
2023-05-05T03:48:34.722Z,94.22
2023-05-05T03:51:02.391Z,96.51
2023-05-05T03:53:30.563Z,97.43
2023-05-05T03:55:58.314Z,97.29
2023-05-05T03:58:27.433Z,100.00
2023-05-05T04:00:55.253Z,97.81
2023-05-05T04:03:23.324Z,97.58
2023-05-05T04:05:51.177Z,97.03
2023-05-05T04:08:18.798Z,98.91
2023-05-05T04:10:46.559Z,98.29
2023-05-05T04:13:14.177Z,98.65
2023-05-05T04:15:46.746Z,98.99
2023-05-05T04:18:14.637Z,100.00
2023-05-05T04:20:42.261Z,100.00
2023-05-05T04:23:09.857Z,99.63
2023-05-05T04:25:37.500Z,100.00
2023-05-05T04:28:05.518Z,100.00
2023-05-05T04:30:33.344Z,100.00
2023-05-05T04:33:02.523Z,100.00
2023-05-05T04:35:30.177Z,100.00
2023-05-05T04:37:57.829Z,100.00
2023-05-05T04:40:26.210Z,100.00
2023-05-05T04:42:53.879Z,100.00
2023-05-05T04:45:21.508Z,98.29
2023-05-05T04:47:49.219Z,99.90
2023-05-05T04:50:18.561Z,100.00
2023-05-05T04:52:46.158Z,100.00
2023-05-05T04:55:13.931Z,100.00
2023-05-05T04:57:41.684Z,100.00
2023-05-05T05:00:10.569Z,100.00
2023-05-05T05:02:38.527Z,100.00
2023-05-05T05:05:07.530Z,100.00
2023-05-05T05:07:36.515Z,100.00
2023-05-05T05:10:04.267Z,100.00
2023-05-05T05:12:31.965Z,100.00
2023-05-05T05:14:59.630Z,100.00
2023-05-05T05:17:27.660Z,100.00
2023-05-05T05:19:56.092Z,100.00
2023-05-05T05:22:23.796Z,100.00
2023-05-05T05:24:53.383Z,100.00
2023-05-05T05:27:20.971Z,100.00
2023-05-05T05:29:48.934Z,100.00
2023-05-05T05:32:16.856Z,100.00
2023-05-05T05:34:44.594Z,100.00
2023-05-05T05:37:12.475Z,100.00
2023-05-05T05:39:41.992Z,99.83
2023-05-05T05:42:12.385Z,99.68
2023-05-05T05:44:40.001Z,99.75
2023-05-05T05:47:07.610Z,99.55
2023-05-05T05:49:35.234Z,98.75
2023-05-05T05:52:02.952Z,98.59
2023-05-05T05:54:32.123Z,97.47
2023-05-05T05:56:59.790Z,97.84
2023-05-05T05:59:28.748Z,97.86
2023-05-05T06:01:56.702Z,96.71
2023-05-05T06:04:24.487Z,96.30
2023-05-05T06:06:52.190Z,95.37
2023-05-05T06:09:19.832Z,94.78
2023-05-05T06:11:47.550Z,93.03
2023-05-05T06:14:17.063Z,91.77
2023-05-05T06:16:47.056Z,91.15
2023-05-05T06:19:14.698Z,91.90
2023-05-05T06:21:42.512Z,91.14
2023-05-05T06:24:10.421Z,92.17
2023-05-05T06:26:37.995Z,92.23
2023-05-05T06:29:05.618Z,93.41
2023-05-05T06:31:33.388Z,93.04
2023-05-05T06:34:02.832Z,92.84
2023-05-05T06:36:31.925Z,92.54
2023-05-05T06:38:59.527Z,92.02
2023-05-05T06:41:27.133Z,91.54
2023-05-05T06:43:56.640Z,91.81
2023-05-05T06:46:24.515Z,91.63
2023-05-05T06:48:52.212Z,91.74
2023-05-05T06:51:28.939Z,90.52
2023-05-05T06:53:56.856Z,90.65
2023-05-05T06:56:24.494Z,91.03
2023-05-05T06:58:52.386Z,91.39
2023-05-05T07:01:20.339Z,91.26
2023-05-05T07:03:48.154Z,91.17
2023-05-05T07:06:15.806Z,90.87
2023-05-05T07:08:47.181Z,90.78
2023-05-05T07:11:16.047Z,90.97
2023-05-05T07:13:43.698Z,90.73
2023-05-05T07:16:11.421Z,90.70
2023-05-05T07:18:39.303Z,90.33
2023-05-05T07:21:07.282Z,89.40
2023-05-05T07:23:35.063Z,88.90
2023-05-05T07:26:04.215Z,88.46
2023-05-05T07:28:31.888Z,87.31
2023-05-05T07:30:59.505Z,87.02
2023-05-05T07:33:27.588Z,87.06
2023-05-05T07:35:55.655Z,86.33
2023-05-05T07:38:23.285Z,84.93
2023-05-05T07:40:50.902Z,84.45
2023-05-05T07:43:20.146Z,84.11
2023-05-05T07:45:47.798Z,85.28
2023-05-05T07:48:15.527Z,85.82
2023-05-05T07:50:43.282Z,86.06
2023-05-05T07:53:14.948Z,86.22
2023-05-05T07:55:43.052Z,85.36
2023-05-05T07:58:11.559Z,84.29
2023-05-05T08:00:40.856Z,83.71
2023-05-05T08:03:11.677Z,84.07
2023-05-05T08:05:40.609Z,83.48
2023-05-05T08:08:08.625Z,84.79
2023-05-05T08:10:36.453Z,84.02
2023-05-05T08:13:04.108Z,83.51
2023-05-05T08:15:31.757Z,83.08
2023-05-05T08:18:01.570Z,83.04
2023-05-05T08:20:30.202Z,83.65
2023-05-05T08:22:57.871Z,83.10
2023-05-05T08:25:27.381Z,83.14
2023-05-05T08:27:55.084Z,83.08
2023-05-05T08:30:22.996Z,83.57
2023-05-05T08:32:50.680Z,82.81
2023-05-05T08:35:19.753Z,82.19
2023-05-05T08:37:47.364Z,81.91
2023-05-05T08:40:15.594Z,82.41
2023-05-05T08:42:44.530Z,81.49
2023-05-05T08:45:14.649Z,82.05
2023-05-05T08:47:43.298Z,81.69
2023-05-05T08:50:12.266Z,81.60
2023-05-05T08:52:44.692Z,81.73
2023-05-05T08:55:24.042Z,81.38
2023-05-05T08:57:54.514Z,80.57
2023-05-05T09:00:23.276Z,79.59
2023-05-05T09:02:51.258Z,79.95
2023-05-05T09:05:19.234Z,79.24
2023-05-05T09:07:48.869Z,78.74
2023-05-05T09:10:16.678Z,78.31
2023-05-05T09:12:44.773Z,77.63
2023-05-05T09:15:14.482Z,77.17
2023-05-05T09:17:43.048Z,76.84
2023-05-05T09:20:12.470Z,76.20
2023-05-05T09:22:41.321Z,76.29
2023-05-05T09:25:12.787Z,75.93
2023-05-05T09:27:42.585Z,75.52
2023-05-05T09:30:13.815Z,76.56
2023-05-05T09:32:46.642Z,76.43
2023-05-05T09:35:14.607Z,75.33
2023-05-05T09:37:42.779Z,76.15
2023-05-05T09:40:15.315Z,73.60
2023-05-05T09:42:44.186Z,74.26
2023-05-05T09:45:27.544Z,72.47
2023-05-05T09:47:59.522Z,73.36
2023-05-05T09:50:30.464Z,72.54
2023-05-05T09:52:59.828Z,72.10
2023-05-05T09:55:30.761Z,72.20
2023-05-05T09:57:58.461Z,70.44
2023-05-05T10:00:38.963Z,70.11
2023-05-05T10:03:07.932Z,71.10
2023-05-05T10:05:48.841Z,71.13
2023-05-05T10:08:16.927Z,69.60
2023-05-05T10:10:51.460Z,68.57
2023-05-05T10:13:21.422Z,69.51
2023-05-05T10:15:51.268Z,70.26
2023-05-05T10:18:22.850Z,69.74
2023-05-05T10:20:56.808Z,70.39
2023-05-05T10:23:26.786Z,69.13
2023-05-05T10:26:02.786Z,69.50
2023-05-05T10:28:34.169Z,69.77
2023-05-05T10:31:12.801Z,71.40
2023-05-05T10:33:54.330Z,68.97
2023-05-05T10:36:23.370Z,68.49
2023-05-05T10:38:55.638Z,68.02
2023-05-05T10:41:25.799Z,69.09
2023-05-05T10:43:56.127Z,69.02
2023-05-05T10:46:25.041Z,67.77
2023-05-05T10:49:03.641Z,67.16
2023-05-05T10:51:41.470Z,68.03
2023-05-05T10:54:15.090Z,67.32
2023-05-05T10:56:44.331Z,67.40
2023-05-05T10:59:40.427Z,65.98
2023-05-05T11:02:22.062Z,67.81
2023-05-05T11:05:14.914Z,66.98
2023-05-05T11:07:43.210Z,67.29
2023-05-05T11:10:13.121Z,66.99
2023-05-05T11:13:25.434Z,67.97
2023-05-05T11:15:55.414Z,67.35
2023-05-05T11:18:31.313Z,67.17
2023-05-05T11:21:16.355Z,67.40
2023-05-05T11:23:48.863Z,68.75
2023-05-05T11:26:19.417Z,68.50
2023-05-05T11:29:05.780Z,69.03
2023-05-05T11:31:35.055Z,69.01
2023-05-05T11:34:29.051Z,70.93
2023-05-05T11:37:01.100Z,70.73
2023-05-05T11:39:37.553Z,71.38
2023-05-05T11:42:18.644Z,72.51
2023-05-05T11:44:46.653Z,79.27
2023-05-05T11:47:32.373Z,80.59
2023-05-05T11:50:17.243Z,83.05
2023-05-05T11:52:45.261Z,93.16
2023-05-05T11:55:12.988Z,95.92
2023-05-05T11:57:40.772Z,96.71
2023-05-05T12:00:09.933Z,90.53
2023-05-05T12:02:39.378Z,86.81
2023-05-05T12:05:07.896Z,88.03
2023-05-05T12:07:36.082Z,85.78
2023-05-05T12:10:03.812Z,86.33
2023-05-05T12:12:36.804Z,85.97
2023-05-05T12:15:06.301Z,84.77
2023-05-05T12:17:40.900Z,82.05
2023-05-05T12:20:10.666Z,71.05
2023-05-05T12:22:39.191Z,72.94
2023-05-05T12:25:08.961Z,62.40
2023-05-05T12:27:37.000Z,62.45
2023-05-05T12:30:16.192Z,65.02
2023-05-05T12:32:46.284Z,65.12
2023-05-05T12:35:15.866Z,66.05
2023-05-05T12:37:44.162Z,66.50
2023-05-05T12:40:48.764Z,67.13
2023-05-05T12:43:31.023Z,67.79
2023-05-05T12:46:07.291Z,67.98
2023-05-05T12:48:37.898Z,65.95
2023-05-05T12:51:17.666Z,68.83
2023-05-05T12:53:46.088Z,69.04
2023-05-05T12:56:33.452Z,70.14
2023-05-05T12:59:01.887Z,72.07
2023-05-05T13:01:29.830Z,72.12
2023-05-05T13:04:13.856Z,70.75
2023-05-05T13:06:43.244Z,69.42
2023-05-05T13:09:28.822Z,68.93
2023-05-05T13:11:57.878Z,67.75
2023-05-05T13:14:25.619Z,67.80
2023-05-05T13:16:54.012Z,66.76
2023-05-05T13:19:24.928Z,66.49
2023-05-05T13:21:52.854Z,65.80
2023-05-05T13:24:31.146Z,64.58
2023-05-05T13:27:06.240Z,64.27
2023-05-05T13:29:36.927Z,63.09
2023-05-05T13:32:04.714Z,59.66
2023-05-05T13:34:34.135Z,62.38
2023-05-05T13:37:01.935Z,60.60
2023-05-05T13:39:29.710Z,60.27
2023-05-05T13:41:57.354Z,59.40
2023-05-05T13:44:25.010Z,58.39
2023-05-05T13:46:53.143Z,58.65
2023-05-05T13:49:20.940Z,56.35
2023-05-05T13:51:50.252Z,55.64
2023-05-05T13:54:17.956Z,55.67
2023-05-05T13:56:45.886Z,55.47
2023-05-05T13:59:13.675Z,54.41
2023-05-05T14:01:41.716Z,55.75
2023-05-05T14:04:09.519Z,57.19
2023-05-05T14:06:37.358Z,55.29
2023-05-05T14:09:07.875Z,54.78
2023-05-05T14:11:35.610Z,54.98
2023-05-05T14:14:03.668Z,54.74
2023-05-05T14:16:31.365Z,55.38
2023-05-05T14:18:59.115Z,54.49
2023-05-05T14:21:27.482Z,54.66
2023-05-05T14:23:55.349Z,55.32
2023-05-05T14:26:24.412Z,55.83
2023-05-05T14:28:52.070Z,56.13
2023-05-05T14:31:19.857Z,57.14
2023-05-05T14:33:47.758Z,56.56
2023-05-05T14:36:15.466Z,57.52
2023-05-05T14:38:43.467Z,57.50
2023-05-05T14:41:11.676Z,58.51
2023-05-05T14:43:40.934Z,59.51
2023-05-05T14:46:08.665Z,60.49
2023-05-05T14:48:36.448Z,59.75
2023-05-05T14:51:04.549Z,60.05
2023-05-05T14:53:32.331Z,60.93
2023-05-05T14:56:02.101Z,62.04
2023-05-05T14:58:30.938Z,61.87
2023-05-05T15:01:00.467Z,60.34
2023-05-05T15:03:28.331Z,60.84
2023-05-05T15:05:56.215Z,60.21
2023-05-05T15:08:23.910Z,60.05
2023-05-05T15:10:51.853Z,60.43
2023-05-05T15:13:19.550Z,60.51
2023-05-05T15:15:48.355Z,61.33
2023-05-05T15:18:18.534Z,62.06
2023-05-05T15:20:55.916Z,62.67
2023-05-05T15:23:23.630Z,63.18
2023-05-05T15:25:51.388Z,63.81
2023-05-05T15:28:19.290Z,64.32
2023-05-05T15:30:47.302Z,64.33
2023-05-05T15:33:14.975Z,64.73
2023-05-05T15:35:46.284Z,65.58
2023-05-05T15:38:14.819Z,68.01
2023-05-05T15:40:47.755Z,71.41
2023-05-05T15:43:18.624Z,74.75
2023-05-05T15:45:46.434Z,76.22
2023-05-05T15:48:14.153Z,81.46
2023-05-05T15:50:41.758Z,82.94
2023-05-05T15:53:10.742Z,84.35
2023-05-05T15:55:39.113Z,83.29
2023-05-05T15:58:06.902Z,83.74
2023-05-05T16:00:34.646Z,84.65
2023-05-05T16:03:02.484Z,84.58
2023-05-05T16:05:30.261Z,84.87
2023-05-05T16:07:57.929Z,87.49
2023-05-05T16:10:27.667Z,92.00
2023-05-05T16:12:55.530Z,93.56
2023-05-05T16:15:23.614Z,94.86
2023-05-05T16:17:51.400Z,97.48
2023-05-05T16:20:19.369Z,98.98
2023-05-05T16:22:47.019Z,100.00
2023-05-05T16:25:17.387Z,100.00
2023-05-05T16:27:46.451Z,100.00
2023-05-05T16:30:15.480Z,100.00
2023-05-05T16:32:43.414Z,100.00
2023-05-05T16:35:12.065Z,100.00
2023-05-05T16:37:39.748Z,100.00
2023-05-05T16:40:08.574Z,100.00
2023-05-05T16:42:36.127Z,100.00
2023-05-05T16:45:06.781Z,100.00
2023-05-05T16:47:36.361Z,100.00
2023-05-05T16:50:08.423Z,100.00
2023-05-05T16:52:37.188Z,100.00
2023-05-05T16:55:05.543Z,100.00
2023-05-05T16:57:33.127Z,100.00
2023-05-05T17:00:00.775Z,100.00
2023-05-05T17:02:29.796Z,100.00
2023-05-05T17:04:57.440Z,100.00
2023-05-05T17:07:25.345Z,100.00
2023-05-05T17:09:53.035Z,100.00
2023-05-05T17:12:20.680Z,100.00
2023-05-05T17:14:48.253Z,100.00
2023-05-05T17:17:16.015Z,100.00
2023-05-05T17:19:45.263Z,100.00
2023-05-05T17:22:12.914Z,100.00
2023-05-05T17:24:41.658Z,100.00
2023-05-05T17:27:09.283Z,100.00
2023-05-05T17:29:40.810Z,100.00
2023-05-05T17:32:08.573Z,100.00
2023-05-05T17:34:36.421Z,100.00
2023-05-05T17:37:05.619Z,100.00
2023-05-05T17:39:33.746Z,100.00
2023-05-05T17:42:01.505Z,100.00
2023-05-05T17:44:29.187Z,100.00
2023-05-05T17:46:56.751Z,100.00
2023-05-05T17:49:25.278Z,100.00
2023-05-05T17:51:53.019Z,100.00
2023-05-05T17:54:21.987Z,100.00
2023-05-05T17:56:49.617Z,100.00
2023-05-05T17:59:17.253Z,100.00
2023-05-05T18:01:44.930Z,100.00
2023-05-05T18:04:12.610Z,100.00
2023-05-05T18:06:40.698Z,100.00
2023-05-05T18:09:10.420Z,100.00
2023-05-05T18:11:40.029Z,100.00
2023-05-05T18:14:07.660Z,100.00
2023-05-05T18:16:36.038Z,100.00
2023-05-05T18:19:03.796Z,100.00
2023-05-05T18:21:31.989Z,100.00
2023-05-05T18:24:11.589Z,100.00
2023-05-05T18:26:50.589Z,100.00
2023-05-05T18:29:18.698Z,100.00
2023-05-05T18:31:48.236Z,100.00
2023-05-05T18:34:16.975Z,100.00
2023-05-05T18:36:44.617Z,100.00
2023-05-05T18:39:12.528Z,100.00
2023-05-05T18:41:41.087Z,100.00
2023-05-05T18:44:11.180Z,100.00
2023-05-05T18:46:38.850Z,100.00
2023-05-05T18:49:06.909Z,100.00
2023-05-05T18:51:34.541Z,100.00
2023-05-05T18:54:02.309Z,100.00
2023-05-05T18:56:30.806Z,100.00
2023-05-05T18:58:58.576Z,100.00
2023-05-05T19:01:31.069Z,100.00
2023-05-05T19:03:59.087Z,100.00
2023-05-05T19:06:27.178Z,100.00
2023-05-05T19:08:56.808Z,100.00
2023-05-05T19:11:24.635Z,100.00
2023-05-05T19:13:52.417Z,100.00
2023-05-05T19:16:20.359Z,100.00
2023-05-05T19:18:50.626Z,100.00
2023-05-05T19:21:18.168Z,100.00
2023-05-05T19:23:46.740Z,100.00
2023-05-05T19:26:15.236Z,100.00
2023-05-05T19:28:42.849Z,100.00
2023-05-05T19:31:11.272Z,100.00
2023-05-05T19:33:45.337Z,100.00
2023-05-05T19:36:14.588Z,100.00
2023-05-05T19:38:44.312Z,100.00
2023-05-05T19:41:12.331Z,100.00
2023-05-05T19:43:41.959Z,100.00
2023-05-05T19:46:10.538Z,100.00
2023-05-05T19:48:41.910Z,100.00
2023-05-05T19:51:10.437Z,100.00
2023-05-05T19:53:40.119Z,100.00
2023-05-05T19:56:08.017Z,100.00
2023-05-05T19:58:54.043Z,100.00
2023-05-05T20:01:22.060Z,100.00
2023-05-05T20:03:51.571Z,100.00
2023-05-05T20:06:19.701Z,100.00
2023-05-05T20:08:49.259Z,100.00
2023-05-05T20:11:19.703Z,100.00
2023-05-05T20:13:48.477Z,100.00
2023-05-05T20:16:18.059Z,100.00
2023-05-05T20:18:46.248Z,100.00
2023-05-05T20:21:14.444Z,100.00
2023-05-05T20:23:43.105Z,100.00
2023-05-05T20:26:12.494Z,100.00
2023-05-05T20:28:43.284Z,100.00
2023-05-05T20:31:13.049Z,100.00
2023-05-05T20:33:41.015Z,100.00
2023-05-05T20:36:08.935Z,100.00
2023-05-05T20:38:36.617Z,100.00
2023-05-05T20:41:04.861Z,100.00
2023-05-05T20:43:33.918Z,100.00
2023-05-05T20:46:02.592Z,100.00
2023-05-05T20:48:30.384Z,100.00
2023-05-05T20:50:58.855Z,100.00
2023-05-05T20:53:26.544Z,100.00
2023-05-05T20:55:54.296Z,100.00
2023-05-05T20:58:22.031Z,100.00
2023-05-05T21:00:51.259Z,100.00
2023-05-05T21:03:18.974Z,100.00
2023-05-05T21:05:46.576Z,100.00
2023-05-05T21:08:14.181Z,100.00
2023-05-05T21:10:42.660Z,100.00
2023-05-05T21:13:10.287Z,100.00
2023-05-05T21:15:38.141Z,100.00
2023-05-05T21:18:07.441Z,100.00
2023-05-05T21:20:35.855Z,100.00
2023-05-05T21:23:03.389Z,100.00
2023-05-05T21:25:30.983Z,100.00
2023-05-05T21:27:58.631Z,100.00
2023-05-05T21:30:27.369Z,100.00
2023-05-05T21:32:54.989Z,100.00
2023-05-05T21:35:24.019Z,100.00
2023-05-05T21:37:51.615Z,100.00
2023-05-05T21:40:19.220Z,100.00
2023-05-05T21:42:46.808Z,100.00
2023-05-05T21:45:14.391Z,100.00
2023-05-05T21:47:42.210Z,100.00
2023-05-05T21:50:11.002Z,100.00
2023-05-05T21:52:40.941Z,100.00
2023-05-05T21:55:11.053Z,100.00
2023-05-05T21:57:38.700Z,100.00
2023-05-05T22:00:08.836Z,100.00
2023-05-05T22:02:36.841Z,100.00
2023-05-05T22:05:05.076Z,100.00
2023-05-05T22:07:33.106Z,100.00
2023-05-05T22:10:03.434Z,100.00
2023-05-05T22:12:31.030Z,100.00
2023-05-05T22:14:58.637Z,100.00
2023-05-05T22:17:26.338Z,100.00
2023-05-05T22:19:56.921Z,100.00
2023-05-05T22:22:25.025Z,100.00
2023-05-05T22:24:52.651Z,100.00
2023-05-05T22:27:21.804Z,100.00
2023-05-05T22:29:49.491Z,100.00
2023-05-05T22:32:17.093Z,100.00
2023-05-05T22:34:44.698Z,100.00
2023-05-05T22:37:12.504Z,100.00
2023-05-05T22:39:40.080Z,100.00
2023-05-05T22:42:07.724Z,100.00
2023-05-05T22:44:36.782Z,100.00
2023-05-05T22:47:04.815Z,100.00
2023-05-05T22:49:32.548Z,100.00
2023-05-05T22:52:00.268Z,100.00
2023-05-05T22:54:27.844Z,100.00
2023-05-05T22:56:55.731Z,100.00
2023-05-05T22:59:23.385Z,100.00
2023-05-05T23:01:52.297Z,100.00
2023-05-05T23:04:19.958Z,100.00
2023-05-05T23:06:47.578Z,100.00
2023-05-05T23:09:15.284Z,100.00
2023-05-05T23:11:42.879Z,100.00
2023-05-05T23:14:10.421Z,100.00
2023-05-05T23:16:38.039Z,100.00
2023-05-05T23:19:07.005Z,100.00
2023-05-05T23:21:41.838Z,100.00
2023-05-05T23:24:17.182Z,100.00
2023-05-05T23:26:44.848Z,100.00
2023-05-05T23:29:12.448Z,100.00
2023-05-05T23:31:40.064Z,100.00
2023-05-05T23:34:09.042Z,100.00
2023-05-05T23:36:36.702Z,100.00
2023-05-05T23:39:04.385Z,100.00
2023-05-05T23:41:32.004Z,100.00
2023-05-05T23:43:59.593Z,100.00
2023-05-05T23:46:27.257Z,100.00
2023-05-05T23:48:55.431Z,100.00
2023-05-05T23:51:24.400Z,100.00
2023-05-05T23:53:52.410Z,100.00
2023-05-05T23:56:20.023Z,100.00
2023-05-05T23:58:47.639Z,100.00
